Virden, Arizona
Current Conditions -  °F | °C
As of 9:51 AM on Friday 28 Nov 2014 (Local Time) from KSAD Reporting Station
Clear Clear  
Wind Chill: 59°   Ceiling: Unl
Heat Index: 59°   Visibility: 10mi
Dew Point: 22°   Wind: 12mph
Humidity: 24%   Direction: 140°SE
Pressure: 30.21"   Gusts: NA
Location:  32.7548°N, 109.14°W
Report Text: KSAD 281651Z AUTO 14010KT 10SM CLR 15/M06 A3021 RMK AO2 SLP207 T01501056
Loading
Personal Weather Stations






























Interactive Weather Map New forecast layout! Learn more

10-Day Weather Forecast

Advertisements
Track Severe Weather on mobile